Time;durP1;ratioP1;P1;durP2;ratioP2;P2;SDS_P1;SDS_P2;PMS_P1;PMS_P2;Temp;Humidity;BMP_temperature;BMP_pressure;BME280_temperature;BME280_humidity;BME280_pressure;Samples;Min_cycle;Max_cycle;Signal;HPM_P1;HPM_P2
2023/01/27 00:00:11;;;;;;;13.48;12.07;;;;;;;;;;4998982;28;20053;-76
2023/01/27 00:02:37;;;;;;;17.30;15.15;;;;;;;;;;4998895;28;20026;-75
2023/01/27 00:05:02;;;;;;;18.55;16.30;;;;;;;;;;5004520;28;20376;-74
2023/01/27 00:07:27;;;;;;;21.92;18.45;;;;;;;;;;5005322;28;20030;-74
2023/01/27 00:09:53;;;;;;;21.23;18.98;;;;;;;;;;4992760;28;20030;-78
2023/01/27 00:15:05;;;;;;;19.67;17.63;;;;;;;;;;5000557;28;20488;-75
2023/01/27 00:17:30;;;;;;;20.38;18.17;;;;;;;;;;4997028;28;20044;-75
2023/01/27 00:19:55;;;;;;;23.10;19.60;;;;;;;;;;5004018;28;20033;-75
2023/01/27 00:25:05;;;;;;;15.55;13.57;;;;;;;;;;5005764;28;20088;-74
2023/01/27 00:27:30;;;;;;;16.08;14.45;;;;;;;;;;5005374;28;20025;-74
2023/01/27 00:29:56;;;;;;;15.57;13.93;;;;;;;;;;5001538;28;20029;-78
2023/01/27 00:35:05;;;;;;;17.17;15.23;;;;;;;;;;5005012;28;20048;-76
2023/01/27 00:37:30;;;;;;;12.43;11.23;;;;;;;;;;5004425;28;20022;-78
2023/01/27 00:39:56;;;;;;;11.52;10.52;;;;;;;;;;5002258;28;20464;-75
2023/01/27 00:42:21;;;;;;;12.60;11.38;;;;;;;;;;4997973;28;20057;-76
2023/01/27 00:47:30;;;;;;;13.35;12.05;;;;;;;;;;4999514;28;20037;-75
2023/01/27 00:49:56;;;;;;;10.02;9.07;;;;;;;;;;5003817;28;20018;-74
2023/01/27 00:52:21;;;;;;;11.32;10.23;;;;;;;;;;5004216;28;20041;-74
2023/01/27 00:54:46;;;;;;;20.55;18.45;;;;;;;;;;5003783;28;20034;-80
2023/01/27 00:57:11;;;;;;;23.13;20.77;;;;;;;;;;5005597;28;20377;-76
2023/01/27 00:59:37;;;;;;;17.48;15.68;;;;;;;;;;5005262;28;20104;-74
2023/01/27 01:02:02;;;;;;;15.50;13.85;;;;;;;;;;4993749;28;20033;-80
2023/01/27 01:04:27;;;;;;;24.98;22.20;;;;;;;;;;4998599;28;20460;-76
2023/01/27 01:06:52;;;;;;;32.80;27.90;;;;;;;;;;5002985;28;20034;-75
2023/01/27 01:09:18;;;;;;;29.15;24.85;;;;;;;;;;5005466;28;20030;-75
2023/01/27 01:11:43;;;;;;;17.77;16.05;;;;;;;;;;5001522;28;20026;-77
2023/01/27 01:14:08;;;;;;;16.83;15.15;;;;;;;;;;4997763;28;20120;-75
2023/01/27 01:16:34;;;;;;;13.90;12.60;;;;;;;;;;4995972;28;20030;-77
2023/01/27 01:18:59;;;;;;;13.70;12.35;;;;;;;;;;5001454;28;20028;-79
2023/01/27 01:21:24;;;;;;;14.98;13.55;;;;;;;;;;5004462;28;20018;-75
2023/01/27 01:23:50;;;;;;;13.38;12.07;;;;;;;;;;5005820;28;20455;-76
2023/01/27 01:26:16;;;;;;;14.55;13.18;;;;;;;;;;5003904;28;20096;-80
2023/01/27 01:28:42;;;;;;;19.15;17.27;;;;;;;;;;5005426;28;20036;-74
2023/01/27 01:31:09;;;;;;;17.65;15.85;;;;;;;;;;4995645;28;20115;-74
2023/01/27 01:33:35;;;;;;;21.08;18.88;;;;;;;;;;5004137;28;20026;-76
2023/01/27 01:36:07;;;;;;;20.52;18.42;;;;;;;;;;5004449;28;20044;-80
2023/01/27 01:38:33;;;;;;;18.60;16.80;;;;;;;;;;5001123;28;20095;-76
2023/01/27 01:40:58;;;;;;;16.08;14.55;;;;;;;;;;5004682;28;20405;-74
2023/01/27 01:43:25;;;;;;;15.75;14.30;;;;;;;;;;5005184;28;20050;-74
2023/01/27 01:45:54;;;;;;;14.85;13.45;;;;;;;;;;5003852;28;20030;-77
2023/01/27 01:48:20;;;;;;;13.25;12.02;;;;;;;;;;4997038;28;20109;-78
2023/01/27 01:50:48;;;;;;;13.45;12.27;;;;;;;;;;5001683;28;20170;-74
2023/01/27 01:53:14;;;;;;;12.95;11.75;;;;;;;;;;5002971;28;20036;-74
2023/01/27 01:55:39;;;;;;;12.30;11.13;;;;;;;;;;5003933;28;20029;-74
2023/01/27 01:58:05;;;;;;;16.95;15.25;;;;;;;;;;5004217;28;20088;-74
2023/01/27 02:00:31;;;;;;;34.75;29.02;;;;;;;;;;5003277;28;20476;-78
2023/01/27 02:02:56;;;;;;;59.85;46.42;;;;;;;;;;5004608;28;20025;-78
2023/01/27 02:05:25;;;;;;;53.95;41.60;;;;;;;;;;5004988;28;20025;-74
2023/01/27 02:08:16;;;;;;;45.33;34.95;;;;;;;;;;5003636;28;20442;-73
2023/01/27 02:10:42;;;;;;;30.65;24.92;;;;;;;;;;5000775;28;20049;-74
2023/01/27 02:13:07;;;;;;;50.13;33.33;;;;;;;;;;5003061;28;20026;-77
2023/01/27 02:15:33;;;;;;;59.83;44.97;;;;;;;;;;5003699;28;20034;-74
2023/01/27 02:17:59;;;;;;;36.30;27.65;;;;;;;;;;4994808;28;20116;-73
2023/01/27 02:20:30;;;;;;;21.50;19.27;;;;;;;;;;4998506;28;20037;-74
2023/01/27 02:23:16;;;;;;;79.43;56.35;;;;;;;;;;5007470;28;20041;-72
2023/01/27 02:25:47;;;;;;;27.70;24.30;;;;;;;;;;5006478;28;20036;-73
2023/01/27 02:28:13;;;;;;;18.20;16.30;;;;;;;;;;5008287;28;20084;-75
2023/01/27 02:30:38;;;;;;;27.88;24.98;;;;;;;;;;5007404;28;20037;-72
2023/01/27 02:33:11;;;;;;;28.35;25.45;;;;;;;;;;5006950;28;20049;-74
2023/01/27 02:35:43;;;;;;;20.88;18.63;;;;;;;;;;5007030;28;20064;-74
2023/01/27 02:38:10;;;;;;;19.30;17.40;;;;;;;;;;5006480;28;20063;-79
2023/01/27 02:40:36;;;;;;;17.85;16.08;;;;;;;;;;5007520;28;20445;-75
2023/01/27 02:43:02;;;;;;;22.63;20.23;;;;;;;;;;4997533;28;20116;-74
2023/01/27 02:45:28;;;;;;;21.52;19.33;;;;;;;;;;5008115;28;20095;-74
2023/01/27 02:47:53;;;;;;;19.75;17.63;;;;;;;;;;5007013;28;20034;-77
2023/01/27 02:50:18;;;;;;;30.35;26.48;;;;;;;;;;5008332;28;20026;-75
2023/01/27 02:52:43;;;;;;;26.38;23.60;;;;;;;;;;5006605;28;20018;-73
2023/01/27 02:55:09;;;;;;;25.38;21.63;;;;;;;;;;5001352;28;20112;-72
2023/01/27 02:57:34;;;;;;;36.78;32.13;;;;;;;;;;5002605;28;20046;-75
2023/01/27 02:59:59;;;;;;;37.85;33.45;;;;;;;;;;5007497;28;20096;-73
2023/01/27 03:02:29;;;;;;;74.63;57.78;;;;;;;;;;5006865;28;20030;-73
2023/01/27 03:04:54;;;;;;;43.17;32.58;;;;;;;;;;5006786;28;20034;-77
2023/01/27 03:07:20;;;;;;;50.17;44.72;;;;;;;;;;5007284;28;20041;-73
2023/01/27 03:09:45;;;;;;;37.53;29.75;;;;;;;;;;5006572;28;20457;-73
2023/01/27 03:12:19;;;;;;;46.50;33.75;;;;;;;;;;5006770;28;20037;-73
2023/01/27 03:20:17;;;;;;;60.67;47.10;;;;;;;;;;5007208;28;20353;-72
2023/01/27 03:22:42;;;;;;;64.70;48.78;;;;;;;;;;4995335;28;20022;-76
2023/01/27 03:25:08;;;;;;;110.35;80.60;;;;;;;;;;5006377;28;20037;-73
2023/01/27 03:27:33;;;;;;;81.22;57.28;;;;;;;;;;5005748;28;20025;-73
2023/01/27 03:29:58;;;;;;;100.63;76.38;;;;;;;;;;5004733;28;20109;-72
2023/01/27 03:32:25;;;;;;;81.93;65.53;;;;;;;;;;5005734;28;20402;-74
2023/01/27 03:34:50;;;;;;;84.68;72.07;;;;;;;;;;5020482;28;20480;-71
2023/01/27 03:48:11;;;;;;;42.30;34.25;;;;;;;;;;5005710;28;20417;-72
2023/01/27 03:50:40;;;;;;;40.45;33.05;;;;;;;;;;4992006;28;20034;-71
2023/01/27 03:53:06;;;;;;;29.55;25.02;;;;;;;;;;5005686;28;20041;-72
2023/01/27 03:55:33;;;;;;;25.65;22.95;;;;;;;;;;5004928;28;20381;-71
2023/01/27 03:58:13;;;;;;;24.35;21.48;;;;;;;;;;5005318;28;20100;-71
2023/01/27 04:00:38;;;;;;;24.58;20.77;;;;;;;;;;5006605;28;20044;-71
2023/01/27 04:08:31;;;;;;;14.15;12.70;;;;;;;;;;5004782;28;20459;-71
2023/01/27 04:13:51;;;;;;;18.55;16.58;;;;;;;;;;4982154;28;20050;-73
2023/01/27 04:16:18;;;;;;;18.63;16.35;;;;;;;;;;5003087;28;20025;-72
2023/01/27 04:18:45;;;;;;;23.05;18.48;;;;;;;;;;5007172;28;20021;-72
2023/01/27 04:21:12;;;;;;;46.60;37.35;;;;;;;;;;5005603;28;20425;-76
2023/01/27 04:23:37;;;;;;;52.72;44.72;;;;;;;;;;5004972;28;20017;-76
2023/01/27 04:26:02;;;;;;;46.78;38.88;;;;;;;;;;5003276;28;20157;-72
2023/01/27 04:28:28;;;;;;;39.40;33.83;;;;;;;;;;5005093;28;20033;-72
2023/01/27 04:30:54;;;;;;;43.45;36.65;;;;;;;;;;5004930;28;20026;-72
2023/01/27 04:33:19;;;;;;;42.53;34.08;;;;;;;;;;5006406;28;20034;-72
2023/01/27 04:35:45;;;;;;;38.22;32.90;;;;;;;;;;4993478;28;20033;-73
2023/01/27 04:38:11;;;;;;;37.17;31.27;;;;;;;;;;4998437;28;20033;-71
2023/01/27 04:40:36;;;;;;;35.33;31.38;;;;;;;;;;4991999;28;20013;-75
2023/01/27 04:43:02;;;;;;;28.88;25.02;;;;;;;;;;4998752;28;20373;-72
2023/01/27 04:45:27;;;;;;;33.53;29.40;;;;;;;;;;4995359;28;20061;-79
2023/01/27 04:47:52;;;;;;;22.38;19.98;;;;;;;;;;4995052;28;20382;-74
2023/01/27 04:50:17;;;;;;;21.88;19.52;;;;;;;;;;4995673;28;20061;-72
2023/01/27 04:52:44;;;;;;;55.30;40.42;;;;;;;;;;4994819;28;20125;-72
2023/01/27 04:55:09;;;;;;;66.75;47.17;;;;;;;;;;4992968;28;20025;-72
2023/01/27 04:57:35;;;;;;;98.75;67.10;;;;;;;;;;4991031;28;20338;-72
2023/01/27 05:00:00;;;;;;;51.05;38.38;;;;;;;;;;4992407;28;20346;-71
2023/01/27 05:02:25;;;;;;;55.88;37.85;;;;;;;;;;5000919;28;20613;-73
2023/01/27 05:04:51;;;;;;;55.90;38.05;;;;;;;;;;5003573;28;20078;-72
2023/01/27 05:07:16;;;;;;;43.17;32.25;;;;;;;;;;5003505;28;20095;-77
2023/01/27 05:09:41;;;;;;;49.38;38.08;;;;;;;;;;5003698;28;20041;-75
2023/01/27 05:12:06;;;;;;;64.45;44.35;;;;;;;;;;5003244;28;20030;-74
2023/01/27 05:14:32;;;;;;;60.47;47.35;;;;;;;;;;5005188;28;20108;-72
2023/01/27 05:16:57;;;;;;;85.22;65.65;;;;;;;;;;5004607;28;20088;-72
2023/01/27 05:19:22;;;;;;;83.40;66.78;;;;;;;;;;5006071;28;20061;-73
2023/01/27 05:21:48;;;;;;;73.15;56.38;;;;;;;;;;5005171;28;20458;-73
2023/01/27 05:24:13;;;;;;;71.10;55.45;;;;;;;;;;4996550;28;20112;-74
2023/01/27 05:26:39;;;;;;;83.15;65.13;;;;;;;;;;4994346;28;20030;-73
2023/01/27 05:29:04;;;;;;;188.98;125.55;;;;;;;;;;5002015;28;20053;-73
2023/01/27 05:31:30;;;;;;;93.05;67.50;;;;;;;;;;5004721;28;20072;-72
2023/01/27 05:33:57;;;;;;;71.30;50.38;;;;;;;;;;5003363;28;20140;-74
2023/01/27 05:36:22;;;;;;;263.42;137.57;;;;;;;;;;5003229;28;20369;-73
2023/01/27 05:38:48;;;;;;;65.45;48.40;;;;;;;;;;4993137;28;20029;-72
2023/01/27 05:41:14;;;;;;;34.75;29.25;;;;;;;;;;4992448;28;20037;-73
2023/01/27 05:43:41;;;;;;;19.40;17.48;;;;;;;;;;4993277;28;20100;-75
2023/01/27 05:46:07;;;;;;;22.05;19.52;;;;;;;;;;5003929;28;20811;-77
2023/01/27 05:48:34;;;;;;;28.42;24.95;;;;;;;;;;5004144;28;20040;-72
2023/01/27 05:50:59;;;;;;;188.68;136.10;;;;;;;;;;5004380;28;20026;-76
2023/01/27 05:53:25;;;;;;;66.65;52.65;;;;;;;;;;4997765;28;20017;-73
2023/01/27 05:55:50;;;;;;;33.65;29.40;;;;;;;;;;5000201;28;20067;-75
2023/01/27 05:58:16;;;;;;;41.33;35.00;;;;;;;;;;5002842;28;20441;-75
2023/01/27 06:00:41;;;;;;;31.40;28.15;;;;;;;;;;5004515;28;20030;-73
2023/01/27 06:03:06;;;;;;;65.78;48.30;;;;;;;;;;5007199;28;20033;-74
2023/01/27 06:05:31;;;;;;;96.85;69.45;;;;;;;;;;5007972;28;20064;-74
2023/01/27 06:07:57;;;;;;;96.45;70.22;;;;;;;;;;5002813;28;20083;-73
2023/01/27 06:10:22;;;;;;;81.43;62.72;;;;;;;;;;5003550;28;20026;-72
2023/01/27 06:12:47;;;;;;;69.78;54.70;;;;;;;;;;5006211;28;20064;-77
2023/01/27 06:15:13;;;;;;;64.68;52.95;;;;;;;;;;5001863;28;20092;-72
2023/01/27 06:17:38;;;;;;;56.58;48.22;;;;;;;;;;4992317;28;20099;-76
2023/01/27 06:20:03;;;;;;;58.78;49.58;;;;;;;;;;4990622;28;20026;-74
2023/01/27 06:22:29;;;;;;;75.50;55.50;;;;;;;;;;4991422;28;20061;-77
2023/01/27 06:24:54;;;;;;;89.68;61.05;;;;;;;;;;4990625;28;24055;-75
2023/01/27 06:27:19;;;;;;;82.07;48.42;;;;;;;;;;4991009;28;20492;-74
2023/01/27 06:29:45;;;;;;;66.80;47.42;;;;;;;;;;4993214;28;20026;-72
2023/01/27 06:32:10;;;;;;;135.55;89.10;;;;;;;;;;4996881;28;20041;-74
2023/01/27 06:34:35;;;;;;;134.88;83.20;;;;;;;;;;4998520;28;20457;-72
2023/01/27 06:37:00;;;;;;;122.10;83.10;;;;;;;;;;5002913;28;20030;-72
2023/01/27 06:39:26;;;;;;;125.05;88.15;;;;;;;;;;5003838;28;20084;-72
2023/01/27 06:41:51;;;;;;;110.47;79.05;;;;;;;;;;5001520;28;20025;-74
2023/01/27 06:44:16;;;;;;;168.07;109.75;;;;;;;;;;4996231;28;20057;-72
2023/01/27 06:46:42;;;;;;;117.53;81.18;;;;;;;;;;4994490;28;20030;-75
2023/01/27 06:49:07;;;;;;;95.38;69.15;;;;;;;;;;5002905;28;20038;-74
2023/01/27 06:51:32;;;;;;;91.32;71.68;;;;;;;;;;5003052;28;20041;-70
2023/01/27 06:53:58;;;;;;;63.25;52.13;;;;;;;;;;5003217;28;20033;-74
2023/01/27 06:56:23;;;;;;;95.30;77.10;;;;;;;;;;5002309;28;20049;-72
2023/01/27 06:58:48;;;;;;;124.25;99.70;;;;;;;;;;5003174;28;20030;-74
2023/01/27 07:01:14;;;;;;;135.05;97.35;;;;;;;;;;4997602;28;20438;-71
2023/01/27 07:03:39;;;;;;;178.38;144.45;;;;;;;;;;4992709;28;20026;-72
2023/01/27 07:06:04;;;;;;;83.38;68.72;;;;;;;;;;4992999;28;20025;-72
2023/01/27 07:08:30;;;;;;;94.68;76.28;;;;;;;;;;4994064;28;20034;-72
2023/01/27 07:10:55;;;;;;;145.77;116.22;;;;;;;;;;4993389;28;20071;-72
2023/01/27 07:13:20;;;;;;;95.38;76.80;;;;;;;;;;4994625;28;20464;-72
2023/01/27 07:15:47;;;;;;;85.75;74.15;;;;;;;;;;4993912;28;20445;-76
2023/01/27 07:18:13;;;;;;;85.30;75.95;;;;;;;;;;5006759;28;20038;-73
2023/01/27 07:20:39;;;;;;;95.70;85.00;;;;;;;;;;5007525;28;20564;-73
2023/01/27 07:23:04;;;;;;;193.02;131.70;;;;;;;;;;5005681;28;20041;-72
2023/01/27 07:25:31;;;;;;;134.10;105.90;;;;;;;;;;5005082;28;20057;-74
2023/01/27 07:27:57;;;;;;;248.20;155.27;;;;;;;;;;4994255;28;20064;-73
2023/01/27 07:30:22;;;;;;;215.18;140.55;;;;;;;;;;5005340;28;20140;-73
2023/01/27 07:32:49;;;;;;;152.07;109.30;;;;;;;;;;4994058;28;20548;-72
2023/01/27 07:35:14;;;;;;;103.25;77.60;;;;;;;;;;4992948;28;20034;-71
2023/01/27 07:37:40;;;;;;;77.20;67.20;;;;;;;;;;4990555;28;20041;-72
2023/01/27 07:40:07;;;;;;;67.55;56.05;;;;;;;;;;4988074;28;20503;-73
2023/01/27 07:42:32;;;;;;;110.43;88.53;;;;;;;;;;4991572;28;20454;-72
2023/01/27 07:44:57;;;;;;;126.88;101.57;;;;;;;;;;5002218;28;20117;-71
2023/01/27 07:47:23;;;;;;;98.20;83.72;;;;;;;;;;5005517;28;20409;-71
2023/01/27 07:49:48;;;;;;;82.28;71.82;;;;;;;;;;5004623;28;20025;-72
2023/01/27 07:52:14;;;;;;;101.82;80.30;;;;;;;;;;5005338;28;20037;-71
2023/01/27 07:54:39;;;;;;;122.25;97.97;;;;;;;;;;5004746;28;20026;-71
2023/01/27 07:57:04;;;;;;;116.43;88.97;;;;;;;;;;5001427;28;20037;-71
2023/01/27 07:59:29;;;;;;;207.73;157.50;;;;;;;;;;4991748;28;20072;-71
2023/01/27 08:01:55;;;;;;;143.15;119.10;;;;;;;;;;4995478;28;20042;-74
2023/01/27 08:04:20;;;;;;;299.48;219.65;;;;;;;;;;5005057;28;20033;-72
2023/01/27 08:06:45;;;;;;;157.60;123.13;;;;;;;;;;5005614;28;20045;-71
2023/01/27 08:09:11;;;;;;;186.20;155.20;;;;;;;;;;5005594;28;20441;-75
2023/01/27 08:11:36;;;;;;;299.08;224.65;;;;;;;;;;5006637;28;20030;-74
2023/01/27 08:14:01;;;;;;;410.83;284.08;;;;;;;;;;5004548;28;20032;-71
2023/01/27 08:16:27;;;;;;;402.50;272.25;;;;;;;;;;5005443;28;20474;-72
2023/01/27 08:18:52;;;;;;;328.35;225.00;;;;;;;;;;5004255;28;20359;-74
2023/01/27 08:21:18;;;;;;;204.52;144.05;;;;;;;;;;5005529;28;20021;-71
2023/01/27 08:23:43;;;;;;;78.57;60.45;;;;;;;;;;5004799;28;20037;-71
2023/01/27 08:26:08;;;;;;;29.73;26.55;;;;;;;;;;5002829;28;20030;-71
2023/01/27 08:28:35;;;;;;;74.93;54.42;;;;;;;;;;5004658;28;20029;-75
2023/01/27 08:31:08;;;;;;;103.60;76.63;;;;;;;;;;5003244;28;20022;-73
2023/01/27 08:33:33;;;;;;;92.15;69.20;;;;;;;;;;5004244;28;20369;-71
2023/01/27 08:36:06;;;;;;;118.63;90.82;;;;;;;;;;5005731;28;20025;-72
2023/01/27 08:38:33;;;;;;;172.75;130.27;;;;;;;;;;5004645;28;20029;-73
2023/01/27 08:41:01;;;;;;;218.80;167.95;;;;;;;;;;5005880;28;20022;-74
2023/01/27 08:43:26;;;;;;;191.15;144.70;;;;;;;;;;5003520;28;20038;-72
2023/01/27 08:45:52;;;;;;;159.85;113.72;;;;;;;;;;4998650;28;20087;-71
2023/01/27 08:48:17;;;;;;;140.85;100.80;;;;;;;;;;4997799;28;20034;-74
2023/01/27 08:50:42;;;;;;;132.73;98.25;;;;;;;;;;5003395;28;20045;-72
2023/01/27 08:53:08;;;;;;;184.60;125.10;;;;;;;;;;5004798;28;20065;-76
2023/01/27 08:55:33;;;;;;;242.30;157.57;;;;;;;;;;5005184;28;20029;-75
2023/01/27 08:57:58;;;;;;;174.80;124.22;;;;;;;;;;5005415;28;20129;-73
2023/01/27 09:00:24;;;;;;;201.25;145.40;;;;;;;;;;5004088;28;20146;-73
2023/01/27 09:02:52;;;;;;;207.10;157.77;;;;;;;;;;5001054;28;20034;-74
2023/01/27 09:05:18;;;;;;;72.28;60.53;;;;;;;;;;4993551;28;20964;-72
2023/01/27 09:07:44;;;;;;;110.97;92.10;;;;;;;;;;5001733;28;20060;-75
2023/01/27 09:10:09;;;;;;;128.48;109.60;;;;;;;;;;4991546;28;20025;-72
2023/01/27 09:12:35;;;;;;;148.10;118.63;;;;;;;;;;5003256;28;20141;-71
2023/01/27 09:15:00;;;;;;;146.10;126.43;;;;;;;;;;5002496;28;20453;-72
2023/01/27 09:17:26;;;;;;;92.03;82.15;;;;;;;;;;5002618;28;20026;-72
2023/01/27 09:19:51;;;;;;;97.68;87.15;;;;;;;;;;5002977;28;20437;-74
2023/01/27 09:22:16;;;;;;;101.43;87.78;;;;;;;;;;5003378;28;20029;-73
2023/01/27 09:24:42;;;;;;;60.22;49.88;;;;;;;;;;5003671;28;20096;-76
2023/01/27 09:27:07;;;;;;;90.28;78.97;;;;;;;;;;5003609;28;20030;-75
2023/01/27 09:29:32;;;;;;;66.88;59.03;;;;;;;;;;5003615;28;20049;-71
2023/01/27 09:31:57;;;;;;;46.38;40.85;;;;;;;;;;5003719;28;20025;-70
2023/01/27 09:34:23;;;;;;;70.93;55.25;;;;;;;;;;5003476;28;21024;-71
2023/01/27 09:36:53;;;;;;;70.60;50.63;;;;;;;;;;5003089;28;20076;-76
2023/01/27 09:39:18;;;;;;;;;;;;;;;;;;5004829;28;20021;-71
2023/01/27 09:41:44;;;;;;;149.02;119.65;;;;;;;;;;5003458;28;19923;-72
2023/01/27 09:44:17;;;;;;;203.45;163.30;;;;;;;;;;5003770;28;20053;-72
2023/01/27 09:46:57;;;;;;;147.05;122.78;;;;;;;;;;5002015;28;20053;-73
2023/01/27 09:49:33;;;;;;;110.82;91.78;;;;;;;;;;5003491;28;20065;-71
2023/01/27 09:52:13;;;;;;;100.03;82.72;;;;;;;;;;5003033;28;20125;-73
2023/01/27 09:54:38;;;;;;;74.35;64.00;;;;;;;;;;5003163;28;20073;-72
2023/01/27 09:57:17;;;;;;;56.00;50.17;;;;;;;;;;5003072;28;20112;-77
2023/01/27 09:59:57;;;;;;;41.38;37.08;;;;;;;;;;5003229;28;20491;-72
2023/01/27 10:02:25;;;;;;;160.27;125.75;;;;;;;;;;5003836;28;20087;-71
2023/01/27 10:05:00;;;;;;;165.02;120.43;;;;;;;;;;5004184;28;20029;-72
2023/01/27 10:07:33;;;;;;;220.55;153.20;;;;;;;;;;5003285;28;20018;-73
2023/01/27 10:10:07;;;;;;;163.07;119.43;;;;;;;;;;5003950;28;20041;-72
2023/01/27 10:12:47;;;;;;;242.23;191.57;;;;;;;;;;5002875;28;20079;-71
2023/01/27 10:15:23;;;;;;;459.77;268.55;;;;;;;;;;5003572;28;20030;-72
2023/01/27 10:18:15;;;;;;;609.72;353.08;;;;;;;;;;5003058;28;20461;-74
2023/01/27 10:21:00;;;;;;;320.70;203.25;;;;;;;;;;5001470;28;20485;-74
2023/01/27 10:23:40;;;;;;;115.75;83.85;;;;;;;;;;5003625;28;20322;-75
2023/01/27 10:26:17;;;;;;;102.25;85.13;;;;;;;;;;5003305;28;20069;-73
2023/01/27 10:28:47;;;;;;;141.43;102.97;;;;;;;;;;5002948;28;20022;-75
2023/01/27 10:31:29;;;;;;;121.70;92.22;;;;;;;;;;5002246;28;20438;-72
2023/01/27 10:34:02;;;;;;;86.82;70.45;;;;;;;;;;5003900;28;20034;-74
2023/01/27 10:36:29;;;;;;;131.73;101.55;;;;;;;;;;5002377;28;20356;-74
2023/01/27 10:38:57;;;;;;;142.80;90.45;;;;;;;;;;5002706;28;20029;-76
2023/01/27 10:41:22;;;;;;;105.45;76.18;;;;;;;;;;5006915;28;20029;-72
2023/01/27 10:43:56;;;;;;;87.60;63.97;;;;;;;;;;5006859;28;20432;-72
2023/01/27 10:46:22;;;;;;;70.10;55.00;;;;;;;;;;5007682;28;20033;-77
2023/01/27 10:48:50;;;;;;;44.33;38.35;;;;;;;;;;5005718;28;20043;-72
2023/01/27 10:51:28;;;;;;;32.17;28.73;;;;;;;;;;5007585;28;20080;-73
2023/01/27 10:54:00;;;;;;;70.32;51.65;;;;;;;;;;5007172;28;20036;-72
2023/01/27 10:56:31;;;;;;;44.15;39.35;;;;;;;;;;5006853;28;20463;-74
2023/01/27 10:58:56;;;;;;;47.53;42.58;;;;;;;;;;5008486;28;20108;-72
2023/01/27 11:01:28;;;;;;;45.25;40.75;;;;;;;;;;5007775;28;20116;-74
2023/01/27 11:03:54;;;;;;;67.35;57.65;;;;;;;;;;5006880;28;20025;-73
2023/01/27 11:06:22;;;;;;;43.28;37.78;;;;;;;;;;5006119;28;20022;-73
2023/01/27 11:08:50;;;;;;;58.13;51.83;;;;;;;;;;5007745;28;20075;-72
2023/01/27 11:14:14;;;;;;;161.57;135.52;;;;;;;;;;5006202;28;20033;-74
2023/01/27 11:16:40;;;;;;;102.53;87.83;;;;;;;;;;5006806;28;20042;-73
2023/01/27 11:19:24;;;;;;;42.92;38.35;;;;;;;;;;5006620;28;20038;-76
2023/01/27 11:21:50;;;;;;;574.53;352.80;;;;;;;;;;5005502;28;20109;-72
2023/01/27 11:24:25;;;;;;;250.23;137.63;;;;;;;;;;5007626;28;20208;-73
2023/01/27 11:26:55;;;;;;;199.45;111.35;;;;;;;;;;5005832;28;20030;-75
2023/01/27 11:29:37;;;;;;;345.63;218.98;;;;;;;;;;5005862;28;20109;-73
2023/01/27 11:32:20;;;;;;;89.90;62.92;;;;;;;;;;5006778;28;20465;-73
2023/01/27 11:35:04;;;;;;;73.03;56.55;;;;;;;;;;5004339;28;20030;-73
2023/01/27 11:37:38;;;;;;;91.70;76.47;;;;;;;;;;5005560;28;20337;-73
2023/01/27 11:40:13;;;;;;;35.80;31.73;;;;;;;;;;5006519;28;20472;-72
2023/01/27 11:42:38;;;;;;;33.10;29.70;;;;;;;;;;5005586;28;20367;-72
2023/01/27 11:45:04;;;;;;;36.85;33.08;;;;;;;;;;5006161;28;20037;-73
2023/01/27 11:47:39;;;;;;;73.60;54.75;;;;;;;;;;5005896;28;20063;-76
2023/01/27 11:50:05;;;;;;;62.60;47.70;;;;;;;;;;5005272;28;20044;-76
2023/01/27 11:52:31;;;;;;;204.57;127.45;;;;;;;;;;5005107;28;20022;-75
2023/01/27 11:54:59;;;;;;;110.97;76.35;;;;;;;;;;5006754;28;20030;-73
2023/01/27 11:57:26;;;;;;;90.28;67.43;;;;;;;;;;5005925;28;20393;-76
2023/01/27 11:59:57;;;;;;;62.83;54.35;;;;;;;;;;5006213;28;20026;-73
2023/01/27 12:02:32;;;;;;;143.10;121.15;;;;;;;;;;5006054;28;20028;-76
2023/01/27 12:04:57;;;;;;;64.93;57.65;;;;;;;;;;5005019;28;20029;-75
2023/01/27 12:07:37;;;;;;;51.55;46.05;;;;;;;;;;5004128;28;20334;-73
2023/01/27 12:10:19;;;;;;;34.72;31.08;;;;;;;;;;5005906;28;20034;-73
2023/01/27 12:12:44;;;;;;;37.88;33.30;;;;;;;;;;5004755;28;20076;-72
2023/01/27 12:15:14;;;;;;;50.67;43.92;;;;;;;;;;5005162;28;20116;-74
2023/01/27 12:17:40;;;;;;;48.65;42.88;;;;;;;;;;5005749;28;20034;-73
2023/01/27 12:20:26;;;;;;;54.13;47.55;;;;;;;;;;5007335;28;21032;-72
2023/01/27 12:22:52;;;;;;;49.38;44.03;;;;;;;;;;5000468;28;20099;-72
2023/01/27 12:25:21;;;;;;;36.95;32.95;;;;;;;;;;5004491;28;20026;-73
2023/01/27 12:27:51;;;;;;;39.40;34.08;;;;;;;;;;5004201;28;20388;-72
2023/01/27 12:30:21;;;;;;;50.42;44.92;;;;;;;;;;5006193;28;20049;-72
2023/01/27 12:32:46;;;;;;;45.58;40.67;;;;;;;;;;5005413;28;20021;-75
2023/01/27 12:35:26;;;;;;;44.15;39.75;;;;;;;;;;5006264;28;20037;-72
2023/01/27 12:37:57;;;;;;;42.25;38.03;;;;;;;;;;5011007;28;20977;-72
2023/01/27 12:40:27;;;;;;;36.75;32.88;;;;;;;;;;5002138;28;20787;-73
2023/01/27 12:43:08;;;;;;;64.93;56.70;;;;;;;;;;5003740;28;20050;-75
2023/01/27 12:45:34;;;;;;;100.75;72.07;;;;;;;;;;5002988;28;20462;-72
2023/01/27 12:48:11;;;;;;;45.38;38.63;;;;;;;;;;5005376;28;20038;-72
2023/01/27 12:50:38;;;;;;;490.35;299.63;;;;;;;;;;5006644;28;20360;-76
2023/01/27 12:53:07;;;;;;;170.45;116.97;;;;;;;;;;5004193;28;20032;-73
2023/01/27 12:55:34;;;;;;;305.60;210.45;;;;;;;;;;5002274;28;20026;-74
2023/01/27 12:57:59;;;;;;;346.65;220.38;;;;;;;;;;5005521;28;20030;-74
2023/01/27 13:00:25;;;;;;;100.45;77.53;;;;;;;;;;4999832;28;20069;-73
2023/01/27 13:02:52;;;;;;;63.08;51.60;;;;;;;;;;4990050;28;20037;-74
2023/01/27 13:05:18;;;;;;;174.63;128.38;;;;;;;;;;5004210;28;20030;-75
2023/01/27 13:07:45;;;;;;;146.23;110.63;;;;;;;;;;5003290;28;20445;-74
2023/01/27 13:10:23;;;;;;;95.82;73.80;;;;;;;;;;4999261;28;20364;-74
2023/01/27 13:12:53;;;;;;;84.93;63.45;;;;;;;;;;4992042;28;20033;-74
2023/01/27 13:15:23;;;;;;;79.90;62.15;;;;;;;;;;5002340;28;20441;-73
2023/01/27 13:17:52;;;;;;;56.42;45.50;;;;;;;;;;5003982;28;20398;-73
2023/01/27 13:20:36;;;;;;;60.25;48.63;;;;;;;;;;4997393;28;20075;-73
2023/01/27 13:23:04;;;;;;;86.72;65.38;;;;;;;;;;4991030;28;20048;-76
2023/01/27 13:25:39;;;;;;;219.00;141.77;;;;;;;;;;4989932;28;20045;-73
2023/01/27 13:28:05;;;;;;;353.05;203.90;;;;;;;;;;4996268;28;20026;-72
2023/01/27 13:30:34;;;;;;;187.00;114.55;;;;;;;;;;5002284;28;20026;-72
2023/01/27 13:33:13;;;;;;;189.50;120.50;;;;;;;;;;5001060;28;20496;-74
2023/01/27 13:35:45;;;;;;;280.55;164.82;;;;;;;;;;5003402;28;20091;-72
2023/01/27 13:38:23;;;;;;;224.25;138.18;;;;;;;;;;5003925;28;20034;-72
2023/01/27 13:40:48;;;;;;;183.70;119.35;;;;;;;;;;5002692;28;20018;-71
2023/01/27 13:43:20;;;;;;;168.73;113.47;;;;;;;;;;5004378;28;20065;-74
2023/01/27 13:45:45;;;;;;;137.00;101.63;;;;;;;;;;5004408;28;20037;-74
2023/01/27 13:48:19;;;;;;;142.85;98.63;;;;;;;;;;5003483;28;20049;-73
2023/01/27 13:50:46;;;;;;;109.90;79.43;;;;;;;;;;5003884;28;20050;-77
2023/01/27 13:53:16;;;;;;;156.70;107.57;;;;;;;;;;5003530;28;20030;-72
2023/01/27 13:55:41;;;;;;;207.85;141.05;;;;;;;;;;5003910;28;20025;-73
2023/01/27 13:58:12;;;;;;;187.95;128.93;;;;;;;;;;5004319;28;20151;-74
2023/01/27 14:00:43;;;;;;;119.15;83.57;;;;;;;;;;5003620;28;20030;-72
2023/01/27 14:03:15;;;;;;;101.57;76.60;;;;;;;;;;5003010;28;20040;-73
2023/01/27 14:06:00;;;;;;;74.20;55.85;;;;;;;;;;5003341;28;20084;-72
2023/01/27 14:08:45;;;;;;;87.53;67.93;;;;;;;;;;5003058;28;20044;-76
2023/01/27 14:11:18;;;;;;;115.05;81.53;;;;;;;;;;5003356;28;20350;-72
2023/01/27 14:13:56;;;;;;;101.75;75.78;;;;;;;;;;5005669;28;20037;-71
2023/01/27 14:16:32;;;;;;;55.05;46.50;;;;;;;;;;5007499;28;20030;-73
2023/01/27 14:19:04;;;;;;;38.72;34.70;;;;;;;;;;5007480;28;20026;-72
2023/01/27 14:21:41;;;;;;;55.97;46.25;;;;;;;;;;5007492;28;20441;-76
2023/01/27 14:24:19;;;;;;;48.22;39.40;;;;;;;;;;5006517;28;20030;-72
2023/01/27 14:26:54;;;;;;;125.97;96.35;;;;;;;;;;5006732;28;20109;-74
2023/01/27 14:29:19;;;;;;;83.07;66.20;;;;;;;;;;5007223;28;20108;-72
2023/01/27 14:31:44;;;;;;;82.95;68.75;;;;;;;;;;5006924;28;20077;-72
2023/01/27 14:34:22;;;;;;;123.18;98.90;;;;;;;;;;5008708;28;20026;-72
2023/01/27 14:36:54;;;;;;;53.13;45.20;;;;;;;;;;5007835;28;20105;-71
2023/01/27 14:39:26;;;;;;;36.95;31.60;;;;;;;;;;5008289;28;20426;-72
2023/01/27 14:41:57;;;;;;;33.85;30.42;;;;;;;;;;5007733;28;20096;-72
2023/01/27 14:44:34;;;;;;;28.95;26.17;;;;;;;;;;5006589;28;20040;-73
2023/01/27 14:47:13;;;;;;;19.05;17.38;;;;;;;;;;5005997;28;20027;-77
2023/01/27 14:49:57;;;;;;;31.40;28.00;;;;;;;;;;5021595;28;20025;-72
2023/01/27 14:52:25;;;;;;;45.85;33.72;;;;;;;;;;5006269;28;20026;-75
2023/01/27 14:55:02;;;;;;;71.72;47.47;;;;;;;;;;5005669;28;20037;-71